Time;durP1;ratioP1;P1;durP2;ratioP2;P2;SDS_P1;SDS_P2;PMS_P1;PMS_P2;Temp;Humidity;BMP_temperature;BMP_pressure;BME280_temperature;BME280_humidity;BME280_pressure;Samples;Min_cycle;Max_cycle;Signal;HPM_P1;HPM_P2
2022/04/05 00:02:08;;;;;;;7.17;4.73;;;4.10;99.90;;;;;;10209278;29;20314;-87
2022/04/05 00:07:29;;;;;;;6.47;3.30;;;4.10;99.90;;;;;;10221898;29;20498;-85
2022/04/05 00:12:51;;;;;;;9.10;2.73;;;4.20;99.90;;;;;;10224614;29;20228;-86
2022/04/05 00:18:13;;;;;;;5.27;2.80;;;4.30;99.90;;;;;;10236328;28;20277;-84
2022/04/05 00:23:34;;;;;;;11.87;4.07;;;4.30;99.90;;;;;;10303627;28;20282;-87
2022/04/05 00:28:56;;;;;;;9.33;3.07;;;4.20;99.90;;;;;;10274564;28;20217;-86
2022/04/05 00:34:18;;;;;;;11.40;3.60;;;4.20;99.90;;;;;;10287623;28;20209;-85
2022/04/05 00:39:39;;;;;;;5.60;2.57;;;4.30;99.90;;;;;;10288356;28;20205;-86
2022/04/05 00:45:00;;;;;;;10.27;2.83;;;4.30;99.90;;;;;;10292621;28;20316;-86
2022/04/05 00:50:23;;;;;;;17.87;3.50;;;4.30;99.90;;;;;;10267908;29;20230;-86
2022/04/05 00:55:45;;;;;;;14.47;3.67;;;4.40;99.90;;;;;;10249844;29;20416;-86
2022/04/05 01:01:09;;;;;;;10.40;2.47;;;4.40;99.90;;;;;;10263046;29;20223;-86
2022/04/05 01:06:34;;;;;;;10.50;2.77;;;4.30;99.90;;;;;;10261892;29;20203;-88
2022/04/05 01:11:56;;;;;;;19.23;3.53;;;4.30;99.90;;;;;;10249124;29;20237;-87
2022/04/05 01:17:18;;;;;;;12.07;2.47;;;4.30;99.90;;;;;;10248721;29;20198;-86
2022/04/05 01:22:49;;;;;;;9.53;2.17;;;4.30;99.90;;;;;;10315524;28;20201;-85
2022/04/05 01:28:11;;;;;;;12.83;2.60;;;4.30;99.90;;;;;;10288599;28;20279;-86
2022/04/05 01:33:32;;;;;;;17.13;3.17;;;4.30;99.90;;;;;;10288208;28;20259;-87
2022/04/05 01:38:54;;;;;;;12.60;2.93;;;4.30;99.90;;;;;;10297151;28;20203;-87
2022/04/05 01:44:16;;;;;;;12.40;2.50;;;4.30;99.90;;;;;;10261476;29;20286;-86
2022/04/05 01:49:39;;;;;;;14.97;2.80;;;4.20;99.90;;;;;;10274610;29;20260;-86
2022/04/05 01:55:00;;;;;;;19.03;3.03;;;4.20;99.90;;;;;;10222228;29;20202;-86
2022/04/05 02:00:22;;;;;;;10.87;2.67;;;4.20;99.90;;;;;;10221886;29;20257;-86
2022/04/05 02:05:46;;;;;;;17.57;2.87;;;4.20;99.90;;;;;;10235215;29;20198;-86
2022/04/05 02:11:07;;;;;;;18.10;2.60;;;4.10;99.90;;;;;;10235184;29;20226;-87
2022/04/05 02:16:33;;;;;;;13.70;2.77;;;4.10;99.90;;;;;;10231003;29;20266;-87
2022/04/05 02:21:58;;;;;;;14.83;3.03;;;4.10;99.90;;;;;;10302586;28;20200;-86
2022/04/05 02:27:21;;;;;;;16.80;3.57;;;4.10;99.90;;;;;;10308846;28;20201;-85
2022/04/05 02:32:44;;;;;;;15.13;2.67;;;4.10;99.90;;;;;;10307975;28;20492;-87
2022/04/05 02:45:34;;;;;;;10.97;2.10;;;4.00;99.90;;;;;;10313586;28;20306;-80
2022/04/05 02:50:56;;;;;;;12.67;2.27;;;3.90;99.90;;;;;;10231496;29;20292;-86
2022/04/05 02:56:17;;;;;;;14.60;3.03;;;3.90;99.90;;;;;;10199492;29;20229;-86
2022/04/05 03:01:40;;;;;;;12.93;2.83;;;3.80;99.90;;;;;;10199335;29;20207;-87
2022/04/05 03:07:06;;;;;;;10.63;3.17;;;3.70;99.90;;;;;;10225499;29;20207;-86
2022/04/05 03:12:29;;;;;;;16.13;2.97;;;3.60;99.90;;;;;;10225994;29;20245;-86
2022/04/05 03:17:53;;;;;;;16.57;3.30;;;3.50;99.90;;;;;;10224687;28;20205;-85
2022/04/05 03:23:16;;;;;;;14.33;2.47;;;3.50;99.90;;;;;;10304290;28;20209;-82
2022/04/05 03:28:37;;;;;;;13.30;2.50;;;3.50;99.90;;;;;;10278733;28;20251;-86
2022/04/05 03:33:59;;;;;;;15.67;3.63;;;3.40;99.90;;;;;;10276594;28;20280;-87
2022/04/05 03:39:21;;;;;;;12.10;2.67;;;3.30;99.90;;;;;;10282019;28;20264;-87
2022/04/05 03:44:43;;;;;;;12.87;2.40;;;3.40;99.90;;;;;;10251355;28;20234;-87
2022/04/05 03:50:05;;;;;;;16.03;3.03;;;3.30;99.90;;;;;;10296148;28;20219;-88
2022/04/05 03:55:30;;;;;;;13.73;3.13;;;3.30;99.90;;;;;;10319123;28;20246;-86
2022/04/05 04:00:54;;;;;;;11.87;2.93;;;3.20;99.90;;;;;;10305639;28;20213;-87
2022/04/05 04:06:22;;;;;;;12.50;3.20;;;3.20;99.90;;;;;;10292223;28;20207;-87
2022/04/05 04:11:45;;;;;;;12.47;2.73;;;3.20;99.90;;;;;;10304860;28;20247;-87
2022/04/05 04:17:08;;;;;;;18.30;4.13;;;3.20;99.90;;;;;;10292981;28;20197;-87
2022/04/05 04:22:30;;;;;;;13.73;2.90;;;3.20;99.90;;;;;;10301463;28;20204;-85
2022/04/05 04:27:52;;;;;;;20.90;3.47;;;3.20;99.90;;;;;;10305597;28;20199;-88
2022/04/05 04:33:13;;;;;;;22.03;3.63;;;3.20;99.90;;;;;;10318665;28;20229;-86
2022/04/05 04:38:35;;;;;;;17.40;3.37;;;3.20;99.90;;;;;;10316028;28;20268;-88
2022/04/05 04:43:56;;;;;;;15.03;3.20;;;3.20;99.90;;;;;;10266516;29;20248;-87
2022/04/05 04:49:18;;;;;;;23.37;4.30;;;3.20;99.90;;;;;;10245574;29;20467;-87
2022/04/05 04:54:39;;;;;;;22.67;3.23;;;3.10;99.90;;;;;;10263867;29;20210;-88
2022/04/05 05:00:01;;;;;;;15.57;3.20;;;3.00;99.90;;;;;;10249814;29;20200;-87
2022/04/05 05:05:22;;;;;;;15.23;3.27;;;3.00;99.90;;;;;;10263174;29;20209;-87
2022/04/05 05:10:44;;;;;;;11.93;2.87;;;2.90;99.90;;;;;;10276395;29;20232;-85
2022/04/05 05:16:05;;;;;;;13.60;3.23;;;2.80;99.90;;;;;;10249008;29;20241;-92
2022/04/05 05:21:26;;;;;;;10.67;2.10;;;2.80;99.90;;;;;;10297018;28;20198;-90
2022/04/05 05:26:48;;;;;;;10.07;2.70;;;2.80;99.90;;;;;;10288833;28;20209;-90
2022/04/05 05:32:10;;;;;;;9.87;2.80;;;2.80;99.90;;;;;;10290633;28;20228;-91
2022/04/05 05:37:31;;;;;;;7.47;2.10;;;2.70;99.90;;;;;;10274203;28;20209;-90
2022/04/05 05:42:58;;;;;;;6.17;1.70;;;2.70;99.90;;;;;;10259544;28;20266;-89
2022/04/05 05:48:19;;;;;;;8.07;2.93;;;2.70;99.90;;;;;;10235597;28;20364;-90
2022/04/05 05:53:41;;;;;;;7.43;2.97;;;2.70;99.90;;;;;;10287189;28;20237;-91
2022/04/05 05:59:02;;;;;;;10.17;2.33;;;2.60;99.90;;;;;;10286077;29;20468;-90
2022/04/05 06:04:24;;;;;;;6.70;2.60;;;2.80;99.90;;;;;;10276982;28;20229;-91
2022/04/05 06:09:45;;;;;;;7.30;2.13;;;2.90;99.90;;;;;;10262778;29;20463;-89
2022/04/05 06:15:08;;;;;;;8.70;2.60;;;3.00;99.90;;;;;;10277396;28;20381;-91
2022/04/05 06:20:30;;;;;;;8.83;2.87;;;2.90;99.90;;;;;;10258132;29;20515;-89
2022/04/05 06:25:51;;;;;;;11.93;3.13;;;3.10;99.90;;;;;;10243607;29;20202;-89
2022/04/05 06:31:12;;;;;;;9.53;2.27;;;3.20;99.90;;;;;;10246336;28;20276;-89
2022/04/05 06:36:34;;;;;;;5.77;1.87;;;3.30;99.90;;;;;;10240966;28;20202;-83
2022/04/05 06:41:55;;;;;;;8.30;2.47;;;3.30;99.90;;;;;;10253299;29;20264;-90
2022/04/05 06:47:19;;;;;;;7.93;2.17;;;3.40;99.90;;;;;;10263109;29;20196;-90
2022/04/05 06:52:41;;;;;;;11.33;2.10;;;3.50;99.90;;;;;;10256103;29;20225;-90
2022/04/05 06:58:03;;;;;;;9.17;3.50;;;3.60;99.90;;;;;;10241106;29;20387;-92
2022/04/05 07:03:25;;;;;;;13.63;8.93;;;3.70;99.90;;;;;;10267281;29;20217;-87
2022/04/05 07:08:47;;;;;;;9.30;5.33;;;4.20;99.90;;;;;;10258721;29;20222;-93
2022/04/05 07:14:08;;;;;;;12.00;6.07;;;5.60;99.90;;;;;;10262763;29;20215;-92
2022/04/05 07:19:30;;;;;;;18.00;5.40;;;6.10;99.90;;;;;;10291866;28;20232;-91
2022/04/05 07:24:51;;;;;;;7.90;3.03;;;5.60;99.90;;;;;;10311689;28;20206;-89
2022/04/05 07:30:13;;;;;;;6.67;2.30;;;5.40;99.90;;;;;;10227210;28;20255;-87
2022/04/05 07:35:35;;;;;;;6.47;2.10;;;5.50;99.90;;;;;;10248228;28;20214;-82
2022/04/05 07:40:57;;;;;;;5.07;1.90;;;5.90;99.90;;;;;;10244119;28;20204;-84
2022/04/05 07:46:19;;;;;;;4.37;1.70;;;6.30;99.90;;;;;;10296732;28;20255;-89
2022/04/05 07:51:41;;;;;;;4.03;2.23;;;6.10;99.90;;;;;;10296656;28;20222;-87
2022/04/05 07:57:03;;;;;;;5.03;1.67;;;7.00;99.90;;;;;;10308686;28;20198;-86
2022/04/05 08:02:25;;;;;;;3.47;0.80;;;7.90;99.90;;;;;;10289983;28;20522;-87
2022/04/05 08:07:49;;;;;;;3.40;1.60;;;7.80;99.90;;;;;;10284386;28;20251;-88
2022/04/05 08:13:10;;;;;;;5.57;2.60;;;7.40;99.90;;;;;;10291463;28;20231;-89
2022/04/05 08:18:31;;;;;;;4.70;2.73;;;7.10;99.90;;;;;;10304585;28;20194;-88
2022/04/05 08:23:53;;;;;;;2.40;1.70;;;6.50;99.90;;;;;;10323738;28;20506;-85
2022/04/05 08:29:14;;;;;;;3.80;2.60;;;6.90;99.90;;;;;;10294727;28;20200;-83
2022/04/05 08:34:41;;;;;;;3.77;1.70;;;7.00;99.90;;;;;;10294138;28;20208;-80
2022/04/05 08:40:06;;;;;;;1.80;1.07;;;7.70;99.90;;;;;;10300451;28;20205;-93
2022/04/05 08:45:28;;;;;;;3.20;1.30;;;7.90;99.90;;;;;;10286751;28;20225;-82
2022/04/05 08:50:50;;;;;;;5.80;1.40;;;7.80;99.90;;;;;;10282767;28;20422;-86
2022/04/05 08:56:11;;;;;;;6.03;4.30;;;8.40;99.90;;;;;;10311030;28;20205;-79
2022/04/05 09:01:34;;;;;;;2.57;1.93;;;9.20;99.90;;;;;;10297367;28;20203;-83
2022/04/05 09:06:57;;;;;;;2.47;1.10;;;9.40;98.40;;;;;;10296139;28;20206;-89
2022/04/05 09:12:20;;;;;;;7.43;1.20;;;8.50;95.20;;;;;;10261835;28;20241;-88
2022/04/05 09:17:43;;;;;;;2.40;1.37;;;8.20;99.10;;;;;;10296670;28;20521;-84
2022/04/05 09:23:33;;;;;;;1.80;1.00;;;8.40;97.00;;;;;;10287864;28;20204;-85
2022/04/05 09:28:58;;;;;;;1.70;1.33;;;8.10;93.40;;;;;;10313097;28;20199;-89
2022/04/05 09:34:21;;;;;;;2.40;1.50;;;7.70;93.90;;;;;;10282059;28;20490;-85
2022/04/05 09:39:43;;;;;;;1.77;1.40;;;7.40;95.10;;;;;;10248131;29;20198;-92
2022/04/05 09:45:04;;;;;;;2.77;1.80;;;7.40;93.30;;;;;;10261407;29;20246;-93
2022/04/05 09:50:26;;;;;;;1.93;1.20;;;7.50;93.20;;;;;;10269255;28;20306;-83
2022/04/05 09:56:05;;;;;;;2.77;1.33;;;7.50;91.10;;;;;;10297344;28;20258;-87
2022/04/05 10:01:28;;;;;;;2.73;0.83;;;7.00;94.10;;;;;;10291807;28;20213;-89
2022/04/05 10:06:49;;;;;;;2.47;1.70;;;6.50;94.80;;;;;;10304466;28;20199;-89
2022/04/05 10:12:10;;;;;;;4.10;1.40;;;6.40;96.70;;;;;;10284817;28;20302;-82
2022/04/05 10:17:32;;;;;;;3.00;1.50;;;7.20;95.50;;;;;;10284235;28;20196;-92
2022/04/05 10:22:57;;;;;;;1.77;1.30;;;8.10;88.60;;;;;;10287506;28;20389;-89
2022/04/05 10:28:24;;;;;;;1.47;0.93;;;8.00;85.10;;;;;;10293834;28;20228;-90
2022/04/05 10:34:19;;;;;;;5.27;2.30;;;7.60;50.30;;;;;;10256083;28;20239;-90
2022/04/05 10:40:04;;;;;;;4.50;1.67;;;7.20;50.30;;;;;;10194204;29;20222;-90
2022/04/05 10:45:29;;;;;;;4.87;1.53;;;7.20;50.00;;;;;;10171575;29;20261;-91
2022/04/05 10:51:00;;;;;;;4.87;2.43;;;7.50;44.80;;;;;;10096221;29;20563;-89
2022/04/05 10:56:21;;;;;;;10.90;5.20;;;8.20;44.60;;;;;;10170443;29;20214;-93
2022/04/05 11:01:45;;;;;;;4.90;1.73;;;8.20;42.80;;;;;;10210438;29;20218;-93
2022/04/05 11:07:10;;;;;;;2.27;1.33;;;7.70;41.30;;;;;;10138721;29;20255;-86
2022/04/05 11:12:31;;;;;;;7.37;2.00;;;7.40;44.70;;;;;;10142633;29;20231;-93
2022/04/05 11:17:55;;;;;;;3.87;0.80;;;7.20;47.10;;;;;;10312021;28;20207;-82
2022/04/05 11:23:18;;;;;;;6.97;1.63;;;6.90;52.70;;;;;;10328552;28;20535;-90
2022/04/05 11:28:46;;;;;;;6.63;4.17;;;6.60;71.50;;;;;;10331986;28;20508;-87
2022/04/05 11:34:37;;;;;;;8.73;4.13;;;6.20;78.60;;;;;;10290417;28;20238;-91
2022/04/05 11:40:01;;;;;;;4.30;1.60;;;6.00;85.20;;;;;;10285990;28;20237;-84
2022/04/05 11:45:22;;;;;;;2.93;1.80;;;6.20;79.90;;;;;;10272069;28;20541;-86
2022/04/05 11:50:43;;;;;;;10.37;2.20;;;6.30;85.50;;;;;;10303052;28;20230;-92
2022/04/05 11:56:23;;;;;;;2.47;1.43;;;6.80;84.70;;;;;;10285649;28;20219;-90
2022/04/05 12:01:50;;;;;;;2.70;1.03;;;7.60;77.00;;;;;;10292660;28;20207;-78
2022/04/05 12:07:12;;;;;;;1.97;1.00;;;7.80;66.90;;;;;;10290183;28;20200;-83
2022/04/05 12:12:33;;;;;;;1.17;0.70;;;7.40;77.00;;;;;;10320435;28;20254;-79
2022/04/05 12:18:16;;;;;;;4.80;0.93;;;7.60;80.90;;;;;;10320605;28;20227;-82
2022/04/05 12:23:41;;;;;;;1.60;1.37;;;8.90;69.30;;;;;;10280117;28;20194;-79
2022/04/05 12:29:03;;;;;;;2.10;0.80;;;9.80;54.70;;;;;;10306552;28;20267;-89
2022/04/05 12:34:26;;;;;;;5.37;2.70;;;10.30;43.30;;;;;;10307429;28;20220;-80
2022/04/05 12:39:54;;;;;;;1.10;0.70;;;10.20;44.90;;;;;;10307488;28;20459;-84
2022/04/05 12:45:29;;;;;;;6.30;3.20;;;10.00;45.70;;;;;;10320120;28;20257;-81
2022/04/05 12:50:52;;;;;;;5.47;2.50;;;9.80;49.40;;;;;;10262381;29;20222;-89
2022/04/05 12:56:15;;;;;;;8.20;2.40;;;9.80;50.10;;;;;;10248303;29;20196;-84
2022/04/05 13:01:36;;;;;;;4.60;1.20;;;9.50;47.70;;;;;;10263074;28;20262;-87
2022/04/05 13:07:00;;;;;;;1.50;0.53;;;9.40;46.70;;;;;;10331362;28;20213;-90
2022/04/05 13:12:21;;;;;;;2.27;0.73;;;9.10;49.70;;;;;;10299793;28;20228;-89
2022/04/05 13:17:44;;;;;;;1.97;1.10;;;8.80;60.10;;;;;;10298966;28;20272;-87
2022/04/05 13:23:06;;;;;;;6.03;1.87;;;8.40;84.40;;;;;;10311824;28;20209;-89
2022/04/05 13:28:36;;;;;;;5.57;2.27;;;8.80;91.60;;;;;;10284616;28;20209;-87
2022/04/05 13:33:58;;;;;;;5.67;2.17;;;8.50;89.30;;;;;;10275377;28;20265;-81
2022/04/05 13:39:19;;;;;;;13.47;6.40;;;7.70;97.00;;;;;;10299828;28;20224;-86
2022/04/05 13:44:41;;;;;;;8.73;4.23;;;7.30;99.90;;;;;;10282816;28;20254;-81
2022/04/05 13:50:03;;;;;;;4.53;2.47;;;6.80;99.90;;;;;;10294847;28;20284;-88
2022/04/05 13:55:24;;;;;;;12.50;6.30;;;6.70;99.90;;;;;;10273005;28;20209;-87
2022/04/05 14:00:45;;;;;;;6.27;3.10;;;6.70;99.90;;;;;;10297210;28;20233;-82
2022/04/05 14:06:07;;;;;;;4.07;2.10;;;6.40;99.90;;;;;;10267482;28;20213;-89
2022/04/05 14:11:30;;;;;;;4.30;2.50;;;6.00;99.90;;;;;;10329301;28;20241;-88
2022/04/05 14:16:53;;;;;;;8.07;3.63;;;5.70;99.90;;;;;;10311727;28;20233;-88
2022/04/05 14:22:14;;;;;;;4.80;2.17;;;5.70;99.90;;;;;;10320069;28;20229;-86
2022/04/05 14:27:35;;;;;;;4.37;1.90;;;5.80;99.90;;;;;;10317873;28;20206;-88
2022/04/05 14:32:58;;;;;;;6.50;2.50;;;5.90;99.90;;;;;;10311925;28;20226;-82
2022/04/05 14:38:20;;;;;;;6.30;2.70;;;5.90;99.90;;;;;;10326196;28;20191;-88
2022/04/05 14:43:41;;;;;;;3.17;2.07;;;6.00;99.90;;;;;;10364996;28;20265;-86
2022/04/05 14:49:04;;;;;;;9.33;2.67;;;6.00;99.90;;;;;;10358203;28;20197;-82
2022/04/05 14:54:25;;;;;;;7.43;2.40;;;6.10;99.90;;;;;;10381209;28;20301;-84
2022/04/05 14:59:46;;;;;;;9.43;3.00;;;6.20;99.90;;;;;;10359101;28;20193;-83
2022/04/05 15:05:09;;;;;;;3.67;1.97;;;6.30;99.90;;;;;;10337350;28;20230;-85
2022/04/05 15:10:31;;;;;;;6.50;1.90;;;6.20;99.90;;;;;;10319002;28;20206;-81
2022/04/05 15:15:52;;;;;;;5.00;1.90;;;6.00;99.90;;;;;;10346843;28;20320;-83
2022/04/05 15:21:16;;;;;;;7.03;2.97;;;5.90;99.90;;;;;;10334207;28;20251;-83
2022/04/05 15:26:39;;;;;;;8.77;2.37;;;5.90;99.90;;;;;;10333462;28;20195;-84
2022/04/05 15:32:01;;;;;;;6.67;3.00;;;5.90;99.90;;;;;;10348148;28;20612;-83
2022/04/05 15:37:23;;;;;;;12.33;3.53;;;5.90;99.90;;;;;;10360390;28;20205;-84
2022/04/05 15:42:46;;;;;;;6.53;2.40;;;6.20;99.10;;;;;;10346032;28;20246;-81
2022/04/05 15:48:07;;;;;;;8.77;3.40;;;6.30;94.90;;;;;;10347620;28;20190;-83
2022/04/05 15:53:29;;;;;;;10.83;3.93;;;6.10;92.90;;;;;;10361330;28;20245;-84
2022/04/05 15:58:50;;;;;;;6.53;2.80;;;6.00;93.60;;;;;;10345923;28;20241;-84
2022/04/05 16:04:11;;;;;;;14.00;5.07;;;5.90;92.10;;;;;;10330715;28;20497;-84
2022/04/05 16:09:34;;;;;;;16.13;5.53;;;5.90;91.70;;;;;;10328631;28;20522;-85
2022/04/05 16:14:55;;;;;;;13.60;4.87;;;5.90;91.80;;;;;;10329487;28;20230;-84
2022/04/05 16:20:17;;;;;;;10.57;4.67;;;5.80;93.60;;;;;;10375958;28;20209;-84
2022/04/05 16:25:39;;;;;;;14.40;4.77;;;5.80;93.40;;;;;;10373036;28;20204;-84
2022/04/05 16:31:00;;;;;;;13.00;5.47;;;5.60;95.10;;;;;;10377136;28;20211;-82
2022/04/05 16:36:22;;;;;;;17.40;7.10;;;5.60;96.00;;;;;;10372001;28;20496;-84
2022/04/05 16:41:43;;;;;;;12.33;5.57;;;5.50;96.30;;;;;;10371431;28;20227;-82
2022/04/05 16:47:05;;;;;;;15.43;7.90;;;5.50;97.40;;;;;;10373427;28;20221;-83
2022/04/05 16:52:30;;;;;;;23.70;8.17;;;5.50;97.30;;;;;;10345464;28;20221;-82
2022/04/05 16:57:51;;;;;;;22.73;8.07;;;5.40;98.00;;;;;;10328323;28;20190;-80
2022/04/05 17:03:13;;;;;;;16.30;6.53;;;5.40;97.90;;;;;;10348479;28;20460;-82
2022/04/05 17:08:40;;;;;;;15.47;5.67;;;5.30;98.60;;;;;;10304690;28;20229;-84
2022/04/05 17:14:02;;;;;;;6.13;2.77;;;5.20;99.90;;;;;;10287669;28;20229;-82
2022/04/05 17:19:24;;;;;;;11.23;4.50;;;5.10;99.90;;;;;;10371625;28;20190;-84
2022/04/05 17:24:46;;;;;;;9.63;4.30;;;5.00;99.40;;;;;;10383680;28;20196;-82
2022/04/05 17:30:08;;;;;;;6.53;2.70;;;4.90;99.90;;;;;;10359023;28;20204;-85
2022/04/05 17:35:30;;;;;;;8.80;2.87;;;4.90;99.90;;;;;;10359092;28;20274;-84
2022/04/05 17:40:57;;;;;;;4.23;2.10;;;4.80;99.90;;;;;;10364441;28;20216;-84
2022/04/05 17:46:18;;;;;;;9.77;2.80;;;4.70;99.90;;;;;;10362246;28;20197;-84
2022/04/05 17:51:40;;;;;;;6.80;3.27;;;4.60;99.90;;;;;;10335599;28;20227;-84
2022/04/05 17:57:01;;;;;;;4.63;3.03;;;4.60;99.90;;;;;;10328789;28;20388;-84
2022/04/05 18:02:23;;;;;;;8.33;3.17;;;4.60;99.90;;;;;;10357118;28;20379;-84
2022/04/05 18:07:45;;;;;;;6.50;2.70;;;4.50;99.90;;;;;;10333631;28;20256;-84
2022/04/05 18:13:07;;;;;;;8.03;2.60;;;4.50;99.90;;;;;;10332348;28;20234;-85
2022/04/05 18:18:30;;;;;;;5.20;2.00;;;4.50;99.90;;;;;;10345269;28;20272;-85
2022/04/05 18:23:51;;;;;;;8.60;3.03;;;4.50;99.90;;;;;;10365096;28;20523;-85
2022/04/05 18:29:14;;;;;;;5.03;2.33;;;4.50;99.90;;;;;;10367669;28;20193;-82
2022/04/05 18:34:36;;;;;;;6.70;2.07;;;4.50;99.90;;;;;;10378084;28;20240;-80
2022/04/05 18:39:57;;;;;;;12.40;4.63;;;4.60;99.90;;;;;;10364669;28;20197;-83
2022/04/05 18:45:18;;;;;;;25.37;10.27;;;4.60;99.90;;;;;;10378516;28;20491;-80
2022/04/05 18:50:40;;;;;;;31.83;15.27;;;4.60;99.90;;;;;;10354655;28;20194;-84
2022/04/05 18:56:04;;;;;;;26.13;11.17;;;4.60;99.90;;;;;;10328582;28;20202;-85
2022/04/05 19:01:26;;;;;;;46.87;18.57;;;4.50;99.90;;;;;;10349362;28;20226;-83
2022/04/05 19:06:48;;;;;;;49.27;22.70;;;4.50;99.90;;;;;;10324654;28;20248;-84
2022/04/05 19:12:09;;;;;;;44.77;20.17;;;4.50;99.90;;;;;;10333201;28;20242;-85
2022/04/05 19:17:31;;;;;;;69.80;27.60;;;4.40;99.90;;;;;;10330871;28;20229;-85
2022/04/05 19:22:52;;;;;;;64.87;26.83;;;4.30;99.90;;;;;;10373720;28;20297;-85
2022/04/05 19:28:13;;;;;;;64.23;29.60;;;4.20;99.90;;;;;;10371389;28;20208;-85
2022/04/05 19:33:35;;;;;;;61.00;30.13;;;4.10;99.90;;;;;;10357621;28;20225;-85
2022/04/05 19:38:57;;;;;;;76.13;38.00;;;4.10;99.90;;;;;;10357297;28;20200;-84
2022/04/05 19:44:18;;;;;;;53.03;26.13;;;4.10;99.90;;;;;;10373102;28;20237;-85
2022/04/05 19:49:40;;;;;;;61.17;26.47;;;4.20;99.90;;;;;;10345763;28;20269;-83
2022/04/05 19:55:01;;;;;;;53.27;19.03;;;4.20;99.90;;;;;;10359869;28;20232;-85
2022/04/05 20:00:22;;;;;;;71.77;33.83;;;4.20;99.90;;;;;;10359387;28;20199;-85
2022/04/05 20:05:44;;;;;;;152.33;75.30;;;4.20;99.90;;;;;;10349664;28;20206;-84
2022/04/05 20:11:05;;;;;;;104.30;47.07;;;4.10;99.90;;;;;;10327791;28;20290;-83
2022/04/05 20:22:10;;;;;;;48.10;21.90;;;4.00;99.90;;;;;;10368748;28;20202;-84
2022/04/05 20:27:31;;;;;;;46.13;20.20;;;3.90;99.90;;;;;;10368361;28;20231;-84
2022/04/05 20:32:52;;;;;;;43.40;20.00;;;3.80;99.90;;;;;;10368083;28;20464;-85
2022/04/05 20:38:14;;;;;;;52.53;18.07;;;3.80;99.90;;;;;;10381412;28;20267;-81
2022/04/05 20:43:35;;;;;;;37.97;14.73;;;3.70;99.90;;;;;;10370438;28;20543;-84
2022/04/05 20:48:56;;;;;;;32.17;14.33;;;3.70;99.90;;;;;;10353515;28;20196;-85
2022/04/05 20:54:18;;;;;;;61.87;25.00;;;3.60;99.90;;;;;;10367189;28;20269;-85
2022/04/05 20:59:39;;;;;;;61.60;25.83;;;3.60;99.90;;;;;;10367430;28;20245;-85
2022/04/05 21:05:00;;;;;;;39.97;15.53;;;3.50;99.90;;;;;;10335727;28;20206;-84
2022/04/05 21:10:22;;;;;;;30.17;12.30;;;3.50;99.90;;;;;;10326570;28;20200;-84
2022/04/05 21:15:43;;;;;;;24.23;9.90;;;3.50;99.90;;;;;;10312542;28;20262;-84
2022/04/05 21:21:05;;;;;;;12.57;4.90;;;3.50;99.90;;;;;;10382246;28;20189;-82
2022/04/05 21:26:26;;;;;;;21.50;8.90;;;3.70;99.90;;;;;;10379857;28;20199;-84
2022/04/05 21:31:48;;;;;;;10.03;5.07;;;3.70;99.90;;;;;;10366376;28;20246;-84
2022/04/05 21:37:13;;;;;;;6.10;3.07;;;3.70;99.90;;;;;;10365937;28;20529;-84
2022/04/05 21:42:35;;;;;;;6.57;3.07;;;3.80;99.90;;;;;;10354254;28;20261;-85
2022/04/05 21:47:59;;;;;;;7.17;3.00;;;3.80;99.90;;;;;;10344825;28;20205;-84
2022/04/05 21:53:20;;;;;;;8.47;2.97;;;3.80;99.90;;;;;;10312129;28;20233;-83
2022/04/05 21:58:42;;;;;;;6.17;2.90;;;3.80;99.90;;;;;;10351457;28;20201;-82
2022/04/05 22:04:03;;;;;;;9.47;2.70;;;3.80;99.90;;;;;;10333739;28;20209;-85
2022/04/05 22:09:25;;;;;;;5.57;2.30;;;3.80;99.90;;;;;;10324847;28;20371;-84
2022/04/05 22:14:46;;;;;;;6.17;2.80;;;3.80;99.90;;;;;;10315598;28;20590;-85
2022/04/05 22:20:09;;;;;;;4.80;2.67;;;3.80;99.90;;;;;;10374272;28;20422;-83
2022/04/05 22:25:30;;;;;;;10.10;3.63;;;3.70;99.90;;;;;;10352295;28;20200;-83
2022/04/05 22:30:54;;;;;;;6.90;3.10;;;3.80;99.90;;;;;;10364792;28;20207;-84
2022/04/05 22:36:15;;;;;;;6.53;3.90;;;3.90;99.90;;;;;;10375133;28;20222;-84
2022/04/05 22:41:36;;;;;;;10.73;4.00;;;3.90;99.90;;;;;;10355277;28;20321;-83
2022/04/05 22:46:58;;;;;;;8.57;3.57;;;3.80;99.90;;;;;;10331964;28;20208;-84
2022/04/05 22:52:25;;;;;;;11.67;4.77;;;3.80;99.90;;;;;;10348675;28;20275;-85
2022/04/05 22:57:47;;;;;;;8.60;4.30;;;3.80;99.90;;;;;;10318037;28;20252;-85
2022/04/05 23:03:08;;;;;;;14.70;4.60;;;3.70;99.90;;;;;;10317066;28;20209;-84
2022/04/05 23:08:29;;;;;;;10.23;4.10;;;3.70;99.90;;;;;;10330898;28;20370;-84
2022/04/05 23:13:51;;;;;;;11.17;4.70;;;3.70;99.90;;;;;;10330763;28;20531;-84
2022/04/05 23:19:12;;;;;;;9.50;4.93;;;3.70;99.90;;;;;;10357608;28;20191;-85
2022/04/05 23:24:34;;;;;;;8.57;4.60;;;3.70;99.90;;;;;;10402175;28;20197;-84
2022/04/05 23:29:55;;;;;;;7.73;5.03;;;3.70;99.90;;;;;;10401691;28;20189;-84
2022/04/05 23:35:16;;;;;;;7.40;4.93;;;3.70;99.90;;;;;;10386719;28;20219;-83
2022/04/05 23:40:39;;;;;;;9.30;4.97;;;3.70;99.90;;;;;;10386617;28;20267;-84
2022/04/05 23:46:00;;;;;;;8.13;4.70;;;3.70;99.90;;;;;;10305788;28;20244;-84
2022/04/05 23:51:23;;;;;;;10.27;4.50;;;3.60;99.90;;;;;;10288821;28;20408;-83
2022/04/05 23:56:45;;;;;;;12.33;5.00;;;3.60;99.90;;;;;;10305393;28;20221;-84
